sensor_id;sensor_type;location;lat;lon;timestamp;P1;durP1;ratioP1;P2;durP2;ratioP2
2652;SDS011;1336;48.692;9.144;2023-05-07T05:00:09;3.43;;;3.13;;
2652;SDS011;1336;48.692;9.144;2023-05-07T05:01:04;5.53;;;3.17;;
2652;SDS011;1336;48.692;9.144;2023-05-07T05:01:55;4.10;;;3.80;;
2652;SDS011;1336;48.692;9.144;2023-05-07T05:02:47;3.65;;;3.35;;
2652;SDS011;1336;48.692;9.144;2023-05-07T05:03:38;7.50;;;3.67;;
2652;SDS011;1336;48.692;9.144;2023-05-07T05:04:30;3.50;;;3.20;;
2652;SDS011;1336;48.692;9.144;2023-05-07T05:05:21;3.65;;;3.28;;
2652;SDS011;1336;48.692;9.144;2023-05-07T05:06:13;3.78;;;3.47;;
2652;SDS011;1336;48.692;9.144;2023-05-07T05:07:04;5.03;;;3.57;;
2652;SDS011;1336;48.692;9.144;2023-05-07T05:07:55;4.13;;;3.47;;
2652;SDS011;1336;48.692;9.144;2023-05-07T05:08:46;3.40;;;3.10;;
2652;SDS011;1336;48.692;9.144;2023-05-07T05:09:38;3.80;;;3.50;;
2652;SDS011;1336;48.692;9.144;2023-05-07T05:10:29;5.03;;;3.43;;
2652;SDS011;1336;48.692;9.144;2023-05-07T05:11:20;4.70;;;3.58;;
2652;SDS011;1336;48.692;9.144;2023-05-07T05:12:11;6.63;;;3.50;;
2652;SDS011;1336;48.692;9.144;2023-05-07T05:13:03;3.63;;;3.33;;
2652;SDS011;1336;48.692;9.144;2023-05-07T05:13:53;5.37;;;4.10;;
2652;SDS011;1336;48.692;9.144;2023-05-07T05:14:45;3.67;;;3.20;;
2652;SDS011;1336;48.692;9.144;2023-05-07T05:15:37;8.20;;;3.90;;
2652;SDS011;1336;48.692;9.144;2023-05-07T05:16:28;4.68;;;4.28;;
2652;SDS011;1336;48.692;9.144;2023-05-07T05:17:20;4.15;;;3.83;;
2652;SDS011;1336;48.692;9.144;2023-05-07T05:18:10;4.37;;;3.87;;
2652;SDS011;1336;48.692;9.144;2023-05-07T05:19:02;4.10;;;3.80;;
2652;SDS011;1336;48.692;9.144;2023-05-07T05:19:53;3.87;;;3.20;;
2652;SDS011;1336;48.692;9.144;2023-05-07T05:20:45;3.85;;;3.33;;
2652;SDS011;1336;48.692;9.144;2023-05-07T05:21:35;5.50;;;3.70;;
2652;SDS011;1336;48.692;9.144;2023-05-07T05:22:27;3.40;;;3.20;;
2652;SDS011;1336;48.692;9.144;2023-05-07T05:23:21;4.45;;;3.55;;
2652;SDS011;1336;48.692;9.144;2023-05-07T05:24:12;4.03;;;3.72;;
2652;SDS011;1336;48.692;9.144;2023-05-07T05:25:03;4.33;;;3.93;;
2652;SDS011;1336;48.692;9.144;2023-05-07T05:25:55;4.20;;;3.90;;
2652;SDS011;1336;48.692;9.144;2023-05-07T05:26:47;4.80;;;3.72;;
2652;SDS011;1336;48.692;9.144;2023-05-07T05:27:39;4.65;;;4.18;;
2652;SDS011;1336;48.692;9.144;2023-05-07T05:28:30;7.60;;;4.40;;
2652;SDS011;1336;48.692;9.144;2023-05-07T05:29:21;3.92;;;3.63;;
2652;SDS011;1336;48.692;9.144;2023-05-07T05:30:12;5.13;;;4.73;;
2652;SDS011;1336;48.692;9.144;2023-05-07T05:31:06;4.50;;;4.20;;
2652;SDS011;1336;48.692;9.144;2023-05-07T05:31:56;6.25;;;4.13;;
2652;SDS011;1336;48.692;9.144;2023-05-07T05:32:48;4.60;;;4.20;;
2652;SDS011;1336;48.692;9.144;2023-05-07T05:33:39;5.33;;;4.83;;
2652;SDS011;1336;48.692;9.144;2023-05-07T05:34:31;4.90;;;4.50;;
2652;SDS011;1336;48.692;9.144;2023-05-07T05:35:23;4.88;;;4.13;;
2652;SDS011;1336;48.692;9.144;2023-05-07T05:36:14;4.90;;;4.30;;
2652;SDS011;1336;48.692;9.144;2023-05-07T05:37:05;4.57;;;4.10;;
2652;SDS011;1336;48.692;9.144;2023-05-07T05:37:57;4.10;;;3.80;;
2652;SDS011;1336;48.692;9.144;2023-05-07T05:38:48;4.30;;;4.00;;
2652;SDS011;1336;48.692;9.144;2023-05-07T05:39:39;4.20;;;3.85;;
2652;SDS011;1336;48.692;9.144;2023-05-07T05:40:31;4.50;;;4.10;;
2652;SDS011;1336;48.692;9.144;2023-05-07T05:41:23;4.43;;;4.13;;
2652;SDS011;1336;48.692;9.144;2023-05-07T05:42:14;4.57;;;4.17;;
2652;SDS011;1336;48.692;9.144;2023-05-07T05:43:05;4.45;;;4.05;;
2652;SDS011;1336;48.692;9.144;2023-05-07T05:43:56;4.50;;;4.20;;
2652;SDS011;1336;48.692;9.144;2023-05-07T05:44:48;4.75;;;4.07;;
2652;SDS011;1336;48.692;9.144;2023-05-07T05:45:38;4.17;;;3.77;;
2652;SDS011;1336;48.692;9.144;2023-05-07T05:46:31;5.38;;;3.47;;
2652;SDS011;1336;48.692;9.144;2023-05-07T05:47:22;4.35;;;4.05;;
2652;SDS011;1336;48.692;9.144;2023-05-07T05:48:14;4.78;;;4.38;;
2652;SDS011;1336;48.692;9.144;2023-05-07T05:49:05;4.60;;;4.13;;
2652;SDS011;1336;48.692;9.144;2023-05-07T05:49:57;4.20;;;3.80;;
2652;SDS011;1336;48.692;9.144;2023-05-07T05:50:47;4.20;;;3.90;;
2652;SDS011;1336;48.692;9.144;2023-05-07T05:51:39;4.30;;;3.90;;
2652;SDS011;1336;48.692;9.144;2023-05-07T05:52:30;4.20;;;3.83;;
2652;SDS011;1336;48.692;9.144;2023-05-07T05:53:21;4.10;;;3.67;;
2652;SDS011;1336;48.692;9.144;2023-05-07T05:54:12;4.50;;;4.10;;
2652;SDS011;1336;48.692;9.144;2023-05-07T05:55:05;4.00;;;3.70;;
2652;SDS011;1336;48.692;9.144;2023-05-07T05:55:56;4.68;;;4.32;;
2652;SDS011;1336;48.692;9.144;2023-05-07T05:56:48;4.45;;;4.15;;
2652;SDS011;1336;48.692;9.144;2023-05-07T05:57:39;4.10;;;3.70;;
2652;SDS011;1336;48.692;9.144;2023-05-07T05:58:31;4.18;;;3.88;;
2652;SDS011;1336;48.692;9.144;2023-05-07T05:59:22;4.47;;;4.07;;
2652;SDS011;1336;48.692;9.144;2023-05-07T06:00:14;4.03;;;3.72;;
2652;SDS011;1336;48.692;9.144;2023-05-07T06:01:06;4.45;;;4.03;;
2652;SDS011;1336;48.692;9.144;2023-05-07T06:01:59;4.07;;;3.75;;
2652;SDS011;1336;48.692;9.144;2023-05-07T06:02:49;4.43;;;4.00;;
2652;SDS011;1336;48.692;9.144;2023-05-07T06:03:41;4.75;;;4.00;;
2652;SDS011;1336;48.692;9.144;2023-05-07T06:04:32;3.93;;;3.63;;
2652;SDS011;1336;48.692;9.144;2023-05-07T06:05:23;4.40;;;4.10;;
2652;SDS011;1336;48.692;9.144;2023-05-07T06:06:14;7.73;;;4.40;;
2652;SDS011;1336;48.692;9.144;2023-05-07T06:07:06;5.00;;;4.53;;
2652;SDS011;1336;48.692;9.144;2023-05-07T06:07:57;4.20;;;3.90;;
2652;SDS011;1336;48.692;9.144;2023-05-07T06:08:49;4.35;;;4.05;;
2652;SDS011;1336;48.692;9.144;2023-05-07T06:09:39;5.07;;;4.57;;
2652;SDS011;1336;48.692;9.144;2023-05-07T06:10:31;4.50;;;3.90;;
2652;SDS011;1336;48.692;9.144;2023-05-07T06:11:22;4.40;;;4.00;;
2652;SDS011;1336;48.692;9.144;2023-05-07T06:12:14;4.38;;;4.00;;
2652;SDS011;1336;48.692;9.144;2023-05-07T06:13:04;4.40;;;4.00;;
2652;SDS011;1336;48.692;9.144;2023-05-07T06:13:56;4.43;;;4.05;;
2652;SDS011;1336;48.692;9.144;2023-05-07T06:14:47;5.10;;;3.90;;
2652;SDS011;1336;48.692;9.144;2023-05-07T06:15:39;4.78;;;4.38;;
2652;SDS011;1336;48.692;9.144;2023-05-07T06:16:29;4.10;;;3.63;;
2652;SDS011;1336;48.692;9.144;2023-05-07T06:17:22;5.88;;;4.15;;
2652;SDS011;1336;48.692;9.144;2023-05-07T06:18:13;5.13;;;4.15;;
2652;SDS011;1336;48.692;9.144;2023-05-07T06:19:05;4.18;;;3.88;;
2652;SDS011;1336;48.692;9.144;2023-05-07T06:19:56;4.70;;;4.30;;
2652;SDS011;1336;48.692;9.144;2023-05-07T06:20:47;3.75;;;3.55;;
2652;SDS011;1336;48.692;9.144;2023-05-07T06:21:39;4.43;;;3.70;;
2652;SDS011;1336;48.692;9.144;2023-05-07T06:22:31;3.85;;;3.55;;
2652;SDS011;1336;48.692;9.144;2023-05-07T06:23:21;3.90;;;3.40;;
2652;SDS011;1336;48.692;9.144;2023-05-07T06:24:13;4.30;;;3.90;;
2652;SDS011;1336;48.692;9.144;2023-05-07T06:25:04;5.13;;;4.67;;
2652;SDS011;1336;48.692;9.144;2023-05-07T06:25:56;4.50;;;4.18;;
2652;SDS011;1336;48.692;9.144;2023-05-07T06:26:47;4.43;;;4.13;;
2652;SDS011;1336;48.692;9.144;2023-05-07T06:27:39;3.90;;;3.60;;
2652;SDS011;1336;48.692;9.144;2023-05-07T06:28:30;4.10;;;3.80;;
2652;SDS011;1336;48.692;9.144;2023-05-07T06:29:25;3.60;;;3.30;;
2652;SDS011;1336;48.692;9.144;2023-05-07T06:30:16;3.97;;;3.60;;
2652;SDS011;1336;48.692;9.144;2023-05-07T06:31:12;4.43;;;4.03;;
2652;SDS011;1336;48.692;9.144;2023-05-07T06:32:06;4.50;;;4.03;;
2652;SDS011;1336;48.692;9.144;2023-05-07T06:33:00;3.72;;;3.42;;
2652;SDS011;1336;48.692;9.144;2023-05-07T06:33:50;5.15;;;3.42;;
2652;SDS011;1336;48.692;9.144;2023-05-07T06:34:42;4.50;;;4.10;;
2652;SDS011;1336;48.692;9.144;2023-05-07T06:35:33;3.60;;;3.20;;
2652;SDS011;1336;48.692;9.144;2023-05-07T06:36:25;4.00;;;3.70;;
2652;SDS011;1336;48.692;9.144;2023-05-07T06:37:16;4.70;;;4.30;;
2652;SDS011;1336;48.692;9.144;2023-05-07T06:38:08;4.40;;;3.80;;
2652;SDS011;1336;48.692;9.144;2023-05-07T06:38:58;4.40;;;4.10;;
2652;SDS011;1336;48.692;9.144;2023-05-07T06:39:50;3.95;;;3.65;;
2652;SDS011;1336;48.692;9.144;2023-05-07T06:40:41;4.80;;;4.27;;
2652;SDS011;1336;48.692;9.144;2023-05-07T06:41:32;4.13;;;3.67;;
2652;SDS011;1336;48.692;9.144;2023-05-07T06:42:24;4.32;;;3.92;;
2652;SDS011;1336;48.692;9.144;2023-05-07T06:43:16;6.03;;;3.78;;
2652;SDS011;1336;48.692;9.144;2023-05-07T06:44:07;4.30;;;3.90;;
2652;SDS011;1336;48.692;9.144;2023-05-07T06:44:58;5.88;;;4.50;;
2652;SDS011;1336;48.692;9.144;2023-05-07T06:45:49;4.20;;;3.80;;
2652;SDS011;1336;48.692;9.144;2023-05-07T06:46:41;4.25;;;3.92;;
2652;SDS011;1336;48.692;9.144;2023-05-07T06:47:32;4.67;;;4.20;;
2652;SDS011;1336;48.692;9.144;2023-05-07T06:48:25;4.60;;;4.10;;
2652;SDS011;1336;48.692;9.144;2023-05-07T06:49:15;5.55;;;4.15;;
2652;SDS011;1336;48.692;9.144;2023-05-07T06:50:07;5.10;;;4.03;;
2652;SDS011;1336;48.692;9.144;2023-05-07T06:50:59;4.22;;;3.90;;
2652;SDS011;1336;48.692;9.144;2023-05-07T06:51:51;3.70;;;3.40;;
2652;SDS011;1336;48.692;9.144;2023-05-07T06:52:42;4.30;;;3.90;;
2652;SDS011;1336;48.692;9.144;2023-05-07T06:53:34;4.65;;;4.25;;
2652;SDS011;1336;48.692;9.144;2023-05-07T06:54:25;7.00;;;4.00;;
2652;SDS011;1336;48.692;9.144;2023-05-07T06:55:17;5.70;;;3.70;;
2652;SDS011;1336;48.692;9.144;2023-05-07T06:56:09;4.85;;;4.45;;
2652;SDS011;1336;48.692;9.144;2023-05-07T06:57:00;4.65;;;4.35;;
2652;SDS011;1336;48.692;9.144;2023-05-07T06:57:51;4.70;;;4.30;;
2652;SDS011;1336;48.692;9.144;2023-05-07T06:58:43;4.93;;;4.50;;
2652;SDS011;1336;48.692;9.144;2023-05-07T06:59:34;4.03;;;3.50;;
2652;SDS011;1336;48.692;9.144;2023-05-07T07:00:25;4.82;;;4.30;;
2652;SDS011;1336;48.692;9.144;2023-05-07T07:01:16;4.10;;;3.70;;
2652;SDS011;1336;48.692;9.144;2023-05-07T07:02:08;3.97;;;3.67;;
2652;SDS011;1336;48.692;9.144;2023-05-07T07:02:58;4.50;;;4.20;;
2652;SDS011;1336;48.692;9.144;2023-05-07T07:03:52;4.63;;;4.10;;
2652;SDS011;1336;48.692;9.144;2023-05-07T07:04:42;3.95;;;3.65;;
2652;SDS011;1336;48.692;9.144;2023-05-07T07:05:35;5.20;;;4.70;;
2652;SDS011;1336;48.692;9.144;2023-05-07T07:06:25;4.40;;;4.00;;
2652;SDS011;1336;48.692;9.144;2023-05-07T07:07:17;4.63;;;4.22;;
2652;SDS011;1336;48.692;9.144;2023-05-07T07:08:08;5.40;;;4.20;;
2652;SDS011;1336;48.692;9.144;2023-05-07T07:09:00;5.10;;;4.60;;
2652;SDS011;1336;48.692;9.144;2023-05-07T07:09:51;4.30;;;4.00;;
2652;SDS011;1336;48.692;9.144;2023-05-07T07:10:43;4.20;;;3.80;;
2652;SDS011;1336;48.692;9.144;2023-05-07T07:11:33;5.17;;;4.73;;
2652;SDS011;1336;48.692;9.144;2023-05-07T07:12:25;4.55;;;4.15;;
2652;SDS011;1336;48.692;9.144;2023-05-07T07:13:16;4.60;;;4.20;;
2652;SDS011;1336;48.692;9.144;2023-05-07T07:14:09;5.10;;;4.60;;
2652;SDS011;1336;48.692;9.144;2023-05-07T07:14:59;4.60;;;4.20;;
2652;SDS011;1336;48.692;9.144;2023-05-07T07:15:52;4.80;;;4.38;;
2652;SDS011;1336;48.692;9.144;2023-05-07T07:16:43;4.77;;;4.37;;
2652;SDS011;1336;48.692;9.144;2023-05-07T07:17:36;5.95;;;4.40;;
2652;SDS011;1336;48.692;9.144;2023-05-07T07:18:27;7.47;;;4.87;;
2652;SDS011;1336;48.692;9.144;2023-05-07T07:19:20;5.20;;;4.75;;
2652;SDS011;1336;48.692;9.144;2023-05-07T07:20:11;4.93;;;4.53;;
2652;SDS011;1336;48.692;9.144;2023-05-07T07:21:03;4.63;;;4.22;;
2652;SDS011;1336;48.692;9.144;2023-05-07T07:21:54;5.80;;;4.70;;
2652;SDS011;1336;48.692;9.144;2023-05-07T07:22:45;4.55;;;4.15;;
2652;SDS011;1336;48.692;9.144;2023-05-07T07:23:36;5.00;;;4.60;;
2652;SDS011;1336;48.692;9.144;2023-05-07T07:24:28;6.35;;;5.03;;
2652;SDS011;1336;48.692;9.144;2023-05-07T07:25:18;4.40;;;4.00;;
2652;SDS011;1336;48.692;9.144;2023-05-07T07:26:10;4.93;;;4.53;;
2652;SDS011;1336;48.692;9.144;2023-05-07T07:27:01;5.80;;;4.33;;
2652;SDS011;1336;48.692;9.144;2023-05-07T07:27:52;5.10;;;4.30;;
2652;SDS011;1336;48.692;9.144;2023-05-07T07:28:43;5.40;;;4.47;;
2652;SDS011;1336;48.692;9.144;2023-05-07T07:29:36;5.00;;;4.60;;
2652;SDS011;1336;48.692;9.144;2023-05-07T07:30:27;4.90;;;4.50;;
2652;SDS011;1336;48.692;9.144;2023-05-07T07:31:18;4.90;;;4.50;;
2652;SDS011;1336;48.692;9.144;2023-05-07T07:32:09;6.67;;;4.90;;
2652;SDS011;1336;48.692;9.144;2023-05-07T07:33:01;5.18;;;4.63;;
2652;SDS011;1336;48.692;9.144;2023-05-07T07:33:53;5.43;;;4.93;;
2652;SDS011;1336;48.692;9.144;2023-05-07T07:34:46;4.80;;;4.35;;
2652;SDS011;1336;48.692;9.144;2023-05-07T07:35:36;4.40;;;4.07;;
2652;SDS011;1336;48.692;9.144;2023-05-07T07:36:28;5.38;;;3.70;;
2652;SDS011;1336;48.692;9.144;2023-05-07T07:37:20;5.55;;;4.20;;
2652;SDS011;1336;48.692;9.144;2023-05-07T07:38:11;3.70;;;3.40;;
2652;SDS011;1336;48.692;9.144;2023-05-07T07:39:02;7.07;;;3.50;;
2652;SDS011;1336;48.692;9.144;2023-05-07T07:39:54;4.97;;;4.57;;
2652;SDS011;1336;48.692;9.144;2023-05-07T07:40:47;4.53;;;4.13;;
2652;SDS011;1336;48.692;9.144;2023-05-07T07:41:38;4.38;;;3.97;;
2652;SDS011;1336;48.692;9.144;2023-05-07T07:42:29;4.20;;;3.90;;
2652;SDS011;1336;48.692;9.144;2023-05-07T07:43:21;6.25;;;4.00;;
2652;SDS011;1336;48.692;9.144;2023-05-07T07:44:12;8.97;;;4.20;;
2652;SDS011;1336;48.692;9.144;2023-05-07T07:45:04;4.20;;;3.80;;
2652;SDS011;1336;48.692;9.144;2023-05-07T07:45:55;4.03;;;3.72;;
2652;SDS011;1336;48.692;9.144;2023-05-07T07:46:47;5.93;;;4.30;;
2652;SDS011;1336;48.692;9.144;2023-05-07T07:47:38;4.27;;;3.90;;
2652;SDS011;1336;48.692;9.144;2023-05-07T07:48:30;4.05;;;3.75;;
2652;SDS011;1336;48.692;9.144;2023-05-07T07:49:21;4.43;;;4.07;;
2652;SDS011;1336;48.692;9.144;2023-05-07T07:50:14;4.13;;;3.72;;
2652;SDS011;1336;48.692;9.144;2023-05-07T07:51:05;4.45;;;4.00;;
2652;SDS011;1336;48.692;9.144;2023-05-07T07:51:56;4.63;;;3.70;;
2652;SDS011;1336;48.692;9.144;2023-05-07T07:52:49;4.05;;;3.75;;
2652;SDS011;1336;48.692;9.144;2023-05-07T07:53:41;4.32;;;3.92;;
2652;SDS011;1336;48.692;9.144;2023-05-07T07:54:32;4.03;;;3.72;;
2652;SDS011;1336;48.692;9.144;2023-05-07T07:55:24;4.30;;;4.00;;
2652;SDS011;1336;48.692;9.144;2023-05-07T07:56:14;6.10;;;3.40;;
2652;SDS011;1336;48.692;9.144;2023-05-07T07:57:06;4.40;;;3.70;;
2652;SDS011;1336;48.692;9.144;2023-05-07T07:57:57;3.53;;;3.30;;
2652;SDS011;1336;48.692;9.144;2023-05-07T07:58:48;4.45;;;3.60;;
2652;SDS011;1336;48.692;9.144;2023-05-07T07:59:39;4.97;;;4.57;;
2652;SDS011;1336;48.692;9.144;2023-05-07T08:00:33;4.15;;;3.75;;
2652;SDS011;1336;48.692;9.144;2023-05-07T08:01:23;4.30;;;3.23;;
2652;SDS011;1336;48.692;9.144;2023-05-07T08:02:16;3.75;;;3.45;;
2652;SDS011;1336;48.692;9.144;2023-05-07T08:03:08;5.22;;;3.75;;
2652;SDS011;1336;48.692;9.144;2023-05-07T08:04:00;3.78;;;3.47;;
2652;SDS011;1336;48.692;9.144;2023-05-07T08:04:53;3.63;;;3.30;;
2652;SDS011;1336;48.692;9.144;2023-05-07T08:05:46;5.95;;;3.53;;
2652;SDS011;1336;48.692;9.144;2023-05-07T08:06:39;3.97;;;3.63;;
2652;SDS011;1336;48.692;9.144;2023-05-07T08:07:31;3.90;;;3.60;;
2652;SDS011;1336;48.692;9.144;2023-05-07T08:08:22;3.80;;;3.40;;
2652;SDS011;1336;48.692;9.144;2023-05-07T08:09:13;3.75;;;3.20;;
2652;SDS011;1336;48.692;9.144;2023-05-07T08:10:04;4.27;;;3.97;;
2652;SDS011;1336;48.692;9.144;2023-05-07T08:10:57;4.18;;;3.78;;
2652;SDS011;1336;48.692;9.144;2023-05-07T08:11:47;4.20;;;3.90;;
2652;SDS011;1336;48.692;9.144;2023-05-07T08:12:39;5.32;;;3.75;;
2652;SDS011;1336;48.692;9.144;2023-05-07T08:13:30;3.93;;;3.60;;
2652;SDS011;1336;48.692;9.144;2023-05-07T08:14:22;4.50;;;4.18;;
2652;SDS011;1336;48.692;9.144;2023-05-07T08:15:13;3.77;;;3.47;;
2652;SDS011;1336;48.692;9.144;2023-05-07T08:16:04;3.90;;;3.58;;
2652;SDS011;1336;48.692;9.144;2023-05-07T08:16:55;4.27;;;3.87;;
2652;SDS011;1336;48.692;9.144;2023-05-07T08:17:47;4.20;;;3.80;;
2652;SDS011;1336;48.692;9.144;2023-05-07T08:18:38;4.30;;;4.00;;
2652;SDS011;1336;48.692;9.144;2023-05-07T08:19:30;3.42;;;3.22;;
2652;SDS011;1336;48.692;9.144;2023-05-07T08:20:20;3.97;;;3.60;;
2652;SDS011;1336;48.692;9.144;2023-05-07T08:21:13;3.72;;;3.42;;
2652;SDS011;1336;48.692;9.144;2023-05-07T08:22:04;5.72;;;4.10;;
2652;SDS011;1336;48.692;9.144;2023-05-07T08:22:56;4.28;;;3.80;;
2652;SDS011;1336;48.692;9.144;2023-05-07T08:23:47;4.10;;;3.80;;
2652;SDS011;1336;48.692;9.144;2023-05-07T08:24:39;4.30;;;3.88;;
2652;SDS011;1336;48.692;9.144;2023-05-07T08:25:30;4.60;;;4.30;;
2652;SDS011;1336;48.692;9.144;2023-05-07T08:26:23;3.75;;;3.45;;
2652;SDS011;1336;48.692;9.144;2023-05-07T08:27:14;3.70;;;3.40;;
2652;SDS011;1336;48.692;9.144;2023-05-07T08:28:05;3.50;;;3.10;;
2652;SDS011;1336;48.692;9.144;2023-05-07T08:28:56;3.67;;;3.37;;
2652;SDS011;1336;48.692;9.144;2023-05-07T08:29:48;3.53;;;3.22;;
2652;SDS011;1336;48.692;9.144;2023-05-07T08:30:39;3.97;;;3.58;;
2652;SDS011;1336;48.692;9.144;2023-05-07T08:31:31;4.55;;;3.80;;
2652;SDS011;1336;48.692;9.144;2023-05-07T08:32:22;3.83;;;3.53;;
2652;SDS011;1336;48.692;9.144;2023-05-07T08:33:14;4.20;;;3.25;;
2652;SDS011;1336;48.692;9.144;2023-05-07T08:34:05;4.33;;;3.83;;
2652;SDS011;1336;48.692;9.144;2023-05-07T08:34:57;4.60;;;4.20;;
2652;SDS011;1336;48.692;9.144;2023-05-07T08:35:48;5.23;;;4.33;;
2652;SDS011;1336;48.692;9.144;2023-05-07T08:36:41;4.55;;;4.03;;
2652;SDS011;1336;48.692;9.144;2023-05-07T08:37:32;4.18;;;3.88;;
2652;SDS011;1336;48.692;9.144;2023-05-07T08:38:23;6.40;;;4.07;;
2652;SDS011;1336;48.692;9.144;2023-05-07T08:39:15;4.17;;;3.80;;
2652;SDS011;1336;48.692;9.144;2023-05-07T08:40:07;4.20;;;3.90;;
2652;SDS011;1336;48.692;9.144;2023-05-07T08:40:58;3.90;;;3.60;;
2652;SDS011;1336;48.692;9.144;2023-05-07T08:41:50;4.10;;;3.80;;
2652;SDS011;1336;48.692;9.144;2023-05-07T08:42:45;4.45;;;4.05;;
2652;SDS011;1336;48.692;9.144;2023-05-07T08:43:40;4.85;;;4.13;;
2652;SDS011;1336;48.692;9.144;2023-05-07T08:44:32;4.38;;;3.97;;
2652;SDS011;1336;48.692;9.144;2023-05-07T08:45:25;4.47;;;4.07;;
2652;SDS011;1336;48.692;9.144;2023-05-07T08:46:18;4.03;;;3.72;;
2652;SDS011;1336;48.692;9.144;2023-05-07T08:47:10;4.35;;;3.95;;
2652;SDS011;1336;48.692;9.144;2023-05-07T08:48:02;4.00;;;3.60;;
2652;SDS011;1336;48.692;9.144;2023-05-07T08:48:56;4.30;;;4.00;;
2652;SDS011;1336;48.692;9.144;2023-05-07T08:49:47;8.10;;;3.73;;
2652;SDS011;1336;48.692;9.144;2023-05-07T08:50:39;4.35;;;3.70;;
2652;SDS011;1336;48.692;9.144;2023-05-07T08:51:30;5.03;;;4.23;;
2652;SDS011;1336;48.692;9.144;2023-05-07T08:52:23;4.28;;;3.80;;
2652;SDS011;1336;48.692;9.144;2023-05-07T08:53:15;4.28;;;3.88;;
2652;SDS011;1336;48.692;9.144;2023-05-07T08:54:08;4.15;;;3.78;;
2652;SDS011;1336;48.692;9.144;2023-05-07T08:55:01;4.20;;;3.70;;
2652;SDS011;1336;48.692;9.144;2023-05-07T08:55:54;5.28;;;3.83;;
2652;SDS011;1336;48.692;9.144;2023-05-07T08:56:45;3.38;;;3.13;;
2652;SDS011;1336;48.692;9.144;2023-05-07T08:57:37;4.15;;;3.75;;
2652;SDS011;1336;48.692;9.144;2023-05-07T08:58:28;4.53;;;4.10;;
2652;SDS011;1336;48.692;9.144;2023-05-07T08:59:19;4.40;;;3.45;;
2652;SDS011;1336;48.692;9.144;2023-05-07T09:00:11;4.00;;;3.70;;
2652;SDS011;1336;48.692;9.144;2023-05-07T09:01:05;4.95;;;3.58;;
2652;SDS011;1336;48.692;9.144;2023-05-07T09:01:59;8.10;;;4.60;;
2652;SDS011;1336;48.692;9.144;2023-05-07T09:02:51;4.10;;;3.60;;
2652;SDS011;1336;48.692;9.144;2023-05-07T09:03:43;4.15;;;3.60;;
2652;SDS011;1336;48.692;9.144;2023-05-07T09:04:36;4.05;;;3.65;;
2652;SDS011;1336;48.692;9.144;2023-05-07T09:05:27;4.03;;;3.73;;
2652;SDS011;1336;48.692;9.144;2023-05-07T09:06:19;3.58;;;3.28;;
2652;SDS011;1336;48.692;9.144;2023-05-07T09:07:10;3.83;;;3.30;;
2652;SDS011;1336;48.692;9.144;2023-05-07T09:08:03;3.38;;;3.17;;
2652;SDS011;1336;48.692;9.144;2023-05-07T09:08:55;3.70;;;3.40;;
2652;SDS011;1336;48.692;9.144;2023-05-07T09:09:48;4.57;;;3.50;;
2652;SDS011;1336;48.692;9.144;2023-05-07T09:10:39;3.80;;;3.50;;
2652;SDS011;1336;48.692;9.144;2023-05-07T09:11:30;3.35;;;3.10;;
2652;SDS011;1336;48.692;9.144;2023-05-07T09:12:21;6.83;;;3.50;;
2652;SDS011;1336;48.692;9.144;2023-05-07T09:13:13;3.40;;;3.20;;
2652;SDS011;1336;48.692;9.144;2023-05-07T09:14:04;4.30;;;3.93;;
2652;SDS011;1336;48.692;9.144;2023-05-07T09:14:56;3.20;;;3.00;;
2652;SDS011;1336;48.692;9.144;2023-05-07T09:15:47;3.50;;;3.20;;
2652;SDS011;1336;48.692;9.144;2023-05-07T09:16:38;4.50;;;3.88;;
2652;SDS011;1336;48.692;9.144;2023-05-07T09:17:29;3.10;;;2.80;;
2652;SDS011;1336;48.692;9.144;2023-05-07T09:18:21;4.15;;;3.08;;
2652;SDS011;1336;48.692;9.144;2023-05-07T09:19:14;2.95;;;2.75;;
2652;SDS011;1336;48.692;9.144;2023-05-07T09:20:06;3.30;;;3.00;;
2652;SDS011;1336;48.692;9.144;2023-05-07T09:20:57;2.95;;;2.67;;
2652;SDS011;1336;48.692;9.144;2023-05-07T09:21:49;5.50;;;2.92;;
2652;SDS011;1336;48.692;9.144;2023-05-07T09:22:40;3.47;;;2.67;;
2652;SDS011;1336;48.692;9.144;2023-05-07T09:23:33;3.55;;;3.10;;
2652;SDS011;1336;48.692;9.144;2023-05-07T09:24:23;3.45;;;3.15;;
2652;SDS011;1336;48.692;9.144;2023-05-07T09:25:15;3.83;;;3.50;;
2652;SDS011;1336;48.692;9.144;2023-05-07T09:26:19;3.60;;;3.30;;
2652;SDS011;1336;48.692;9.144;2023-05-07T09:27:12;3.03;;;2.75;;
2652;SDS011;1336;48.692;9.144;2023-05-07T09:28:03;4.07;;;3.10;;
2652;SDS011;1336;48.692;9.144;2023-05-07T09:28:57;3.28;;;2.97;;
2652;SDS011;1336;48.692;9.144;2023-05-07T09:29:47;4.00;;;3.30;;
2652;SDS011;1336;48.692;9.144;2023-05-07T09:30:39;2.97;;;2.78;;
2652;SDS011;1336;48.692;9.144;2023-05-07T09:31:30;3.73;;;3.40;;
2652;SDS011;1336;48.692;9.144;2023-05-07T09:32:22;3.85;;;3.30;;
2652;SDS011;1336;48.692;9.144;2023-05-07T09:33:12;4.63;;;3.30;;
2652;SDS011;1336;48.692;9.144;2023-05-07T09:34:04;5.13;;;3.00;;
2652;SDS011;1336;48.692;9.144;2023-05-07T09:34:55;3.03;;;2.80;;
2652;SDS011;1336;48.692;9.144;2023-05-07T09:35:47;3.00;;;2.80;;
2652;SDS011;1336;48.692;9.144;2023-05-07T09:36:41;3.90;;;3.55;;
2652;SDS011;1336;48.692;9.144;2023-05-07T09:37:33;3.40;;;3.20;;
2652;SDS011;1336;48.692;9.144;2023-05-07T09:38:23;3.67;;;3.37;;
2652;SDS011;1336;48.692;9.144;2023-05-07T09:39:19;3.28;;;3.00;;
2652;SDS011;1336;48.692;9.144;2023-05-07T09:40:19;3.30;;;3.10;;
2652;SDS011;1336;48.692;9.144;2023-05-07T09:41:12;2.80;;;2.60;;
2652;SDS011;1336;48.692;9.144;2023-05-07T09:42:03;3.53;;;3.22;;
2652;SDS011;1336;48.692;9.144;2023-05-07T09:42:56;3.75;;;3.28;;
2652;SDS011;1336;48.692;9.144;2023-05-07T09:43:58;3.63;;;3.30;;
2652;SDS011;1336;48.692;9.144;2023-05-07T09:44:50;3.90;;;3.10;;
2652;SDS011;1336;48.692;9.144;2023-05-07T09:45:41;3.23;;;3.00;;
2652;SDS011;1336;48.692;9.144;2023-05-07T09:46:33;4.22;;;3.00;;
2652;SDS011;1336;48.692;9.144;2023-05-07T09:47:28;2.97;;;2.72;;
2652;SDS011;1336;48.692;9.144;2023-05-07T09:48:27;3.45;;;3.15;;
2652;SDS011;1336;48.692;9.144;2023-05-07T09:49:20;7.30;;;3.28;;
2652;SDS011;1336;48.692;9.144;2023-05-07T09:50:13;3.15;;;2.92;;
2652;SDS011;1336;48.692;9.144;2023-05-07T09:51:10;3.08;;;2.78;;
2652;SDS011;1336;48.692;9.144;2023-05-07T09:52:07;4.47;;;3.28;;
2652;SDS011;1336;48.692;9.144;2023-05-07T09:53:00;3.00;;;2.70;;
2652;SDS011;1336;48.692;9.144;2023-05-07T09:53:52;3.22;;;2.92;;
2652;SDS011;1336;48.692;9.144;2023-05-07T09:54:45;3.42;;;3.13;;
2652;SDS011;1336;48.692;9.144;2023-05-07T09:55:39;2.95;;;2.75;;
2652;SDS011;1336;48.692;9.144;2023-05-07T09:56:30;2.72;;;2.53;;
2652;SDS011;1336;48.692;9.144;2023-05-07T09:57:22;3.47;;;2.92;;
2652;SDS011;1336;48.692;9.144;2023-05-07T09:58:15;2.95;;;2.65;;
2652;SDS011;1336;48.692;9.144;2023-05-07T09:59:10;2.95;;;2.70;;
2652;SDS011;1336;48.692;9.144;2023-05-07T10:00:02;2.90;;;2.70;;
2652;SDS011;1336;48.692;9.144;2023-05-07T10:00:55;2.83;;;2.63;;
2652;SDS011;1336;48.692;9.144;2023-05-07T10:01:47;2.72;;;2.53;;
2652;SDS011;1336;48.692;9.144;2023-05-07T10:02:40;3.42;;;3.10;;
2652;SDS011;1336;48.692;9.144;2023-05-07T10:03:36;3.00;;;2.80;;
2652;SDS011;1336;48.692;9.144;2023-05-07T10:04:30;2.80;;;2.60;;
2652;SDS011;1336;48.692;9.144;2023-05-07T10:05:23;3.22;;;2.80;;
2652;SDS011;1336;48.692;9.144;2023-05-07T10:06:15;2.97;;;2.77;;
2652;SDS011;1336;48.692;9.144;2023-05-07T10:07:07;2.97;;;2.78;;
2652;SDS011;1336;48.692;9.144;2023-05-07T10:07:59;3.10;;;2.90;;
2652;SDS011;1336;48.692;9.144;2023-05-07T10:08:52;4.33;;;2.80;;
2652;SDS011;1336;48.692;9.144;2023-05-07T10:09:45;3.20;;;3.00;;
2652;SDS011;1336;48.692;9.144;2023-05-07T10:10:37;2.60;;;2.40;;
2652;SDS011;1336;48.692;9.144;2023-05-07T10:11:28;2.83;;;2.60;;
2652;SDS011;1336;48.692;9.144;2023-05-07T10:12:20;2.83;;;2.63;;
2652;SDS011;1336;48.692;9.144;2023-05-07T10:13:11;2.92;;;2.70;;
2652;SDS011;1336;48.692;9.144;2023-05-07T10:14:03;3.90;;;2.88;;
2652;SDS011;1336;48.692;9.144;2023-05-07T10:14:55;5.25;;;2.95;;
2652;SDS011;1336;48.692;9.144;2023-05-07T10:15:47;2.70;;;2.50;;
2652;SDS011;1336;48.692;9.144;2023-05-07T10:16:39;2.80;;;2.43;;
2652;SDS011;1336;48.692;9.144;2023-05-07T10:17:31;3.55;;;2.70;;
2652;SDS011;1336;48.692;9.144;2023-05-07T10:18:23;3.42;;;2.53;;
2652;SDS011;1336;48.692;9.144;2023-05-07T10:19:19;3.15;;;2.75;;
2652;SDS011;1336;48.692;9.144;2023-05-07T10:20:10;3.20;;;2.80;;
2652;SDS011;1336;48.692;9.144;2023-05-07T10:21:04;3.13;;;2.93;;
2652;SDS011;1336;48.692;9.144;2023-05-07T10:22:01;4.00;;;2.80;;